Time;durP1;ratioP1;P1;durP2;ratioP2;P2;SDS_P1;SDS_P2;PMS_P1;PMS_P2;Temp;Humidity;BMP_temperature;BMP_pressure;BME280_temperature;BME280_humidity;BME280_pressure;Samples;Min_cycle;Max_cycle;Signal;HPM_P1;HPM_P2
2023/04/29 00:00:06;;;;;;;70.22;46.65;;;;;;;9.36;100.00;101395.75;5044847;28;20057;-85
2023/04/29 00:02:35;;;;;;;68.38;47.47;;;;;;;9.35;100.00;101394.06;5044168;28;20068;-84
2023/04/29 00:05:12;;;;;;;68.00;48.05;;;;;;;9.28;100.00;101392.75;5027566;28;20377;-85
2023/04/29 00:07:52;;;;;;;67.63;47.38;;;;;;;9.26;100.00;101397.25;5029085;28;20088;-85
2023/04/29 00:10:17;;;;;;;73.15;48.22;;;;;;;9.27;100.00;101392.84;5027904;28;20441;-85
2023/04/29 00:12:43;;;;;;;68.38;47.85;;;;;;;9.26;100.00;101399.88;5028311;28;20018;-85
2023/04/29 00:15:12;;;;;;;66.78;47.92;;;;;;;9.26;100.00;101399.88;5026702;28;20167;-85
2023/04/29 00:17:38;;;;;;;71.60;47.05;;;;;;;9.26;100.00;101393.78;5027847;28;20040;-85
2023/04/29 00:20:04;;;;;;;65.07;47.70;;;;;;;9.23;100.00;101397.44;5027960;28;20378;-85
2023/04/29 00:22:29;;;;;;;66.15;46.00;;;;;;;9.22;100.00;101405.41;5028500;28;20455;-85
2023/04/29 00:24:57;;;;;;;67.00;45.97;;;;;;;9.20;100.00;101400.22;5027990;28;20056;-85
2023/04/29 00:27:24;;;;;;;67.60;45.97;;;;;;;9.23;100.00;101405.31;5031813;28;20056;-85
2023/04/29 00:29:49;;;;;;;61.05;43.88;;;;;;;9.25;100.00;101402.59;5046874;28;20255;-84
2023/04/29 00:32:14;;;;;;;64.10;44.47;;;;;;;9.21;100.00;101407.19;5047674;28;20024;-84
2023/04/29 00:34:40;;;;;;;61.42;44.08;;;;;;;9.22;100.00;101413.28;5051777;28;20449;-84
2023/04/29 00:37:06;;;;;;;52.90;40.78;;;;;;;9.14;100.00;101411.09;5051387;28;20021;-84
2023/04/29 00:39:31;;;;;;;50.60;40.92;;;;;;;9.13;100.00;101414.66;5049404;28;20071;-84
2023/04/29 00:42:03;;;;;;;46.78;38.92;;;;;;;9.10;100.00;101420.94;5048626;28;20064;-84
2023/04/29 00:44:31;;;;;;;43.40;37.53;;;;;;;9.08;100.00;101424.56;5010575;28;20037;-85
2023/04/29 00:46:58;;;;;;;42.42;37.75;;;;;;;9.07;100.00;101422.88;5012154;28;20272;-84
2023/04/29 00:49:32;;;;;;;42.70;35.72;;;;;;;9.02;100.00;101425.78;5010617;28;20555;-85
2023/04/29 00:52:16;;;;;;;44.17;35.88;;;;;;;8.99;100.00;101410.22;5012512;28;20033;-85
2023/04/29 00:54:45;;;;;;;46.20;35.97;;;;;;;9.00;100.00;101418.94;5011322;28;20037;-84
2023/04/29 00:57:11;;;;;;;40.75;35.58;;;;;;;8.95;100.00;101415.72;5012336;28;20030;-84
2023/04/29 00:59:39;;;;;;;41.40;35.35;;;;;;;8.94;100.00;101421.91;5012337;28;20076;-85
2023/04/29 01:02:15;;;;;;;39.33;35.05;;;;;;;8.95;100.00;101421.81;5012168;28;20387;-85
2023/04/29 01:04:43;;;;;;;42.35;35.33;;;;;;;8.87;100.00;101431.09;5012497;28;20044;-84
2023/04/29 01:07:14;;;;;;;41.85;35.20;;;;;;;8.86;100.00;101432.03;5011817;28;20032;-85
2023/04/29 01:10:06;;;;;;;40.20;34.55;;;;;;;8.87;100.00;101436.34;5012470;28;20029;-84
2023/04/29 01:12:35;;;;;;;38.67;33.92;;;;;;;8.81;100.00;101434.91;5012238;28;20026;-84
2023/04/29 01:15:31;;;;;;;41.83;35.97;;;;;;;8.83;100.00;101437.44;5012157;28;20478;-84
2023/04/29 01:18:46;;;;;;;41.83;36.97;;;;;;;8.76;100.00;101442.16;4992523;28;20030;-84
2023/04/29 01:21:12;;;;;;;42.17;36.80;;;;;;;8.72;100.00;101441.50;4971607;28;20084;-84
2023/04/29 01:23:37;;;;;;;42.45;37.30;;;;;;;8.70;100.00;101448.63;4972681;28;20034;-83
2023/04/29 01:26:07;;;;;;;45.70;37.60;;;;;;;8.71;100.00;101445.06;5001837;28;20125;-84
2023/04/29 01:29:01;;;;;;;43.25;37.47;;;;;;;8.72;100.00;101449.38;4989939;28;20066;-84
2023/04/29 01:31:51;;;;;;;47.17;38.95;;;;;;;8.77;100.00;101455.19;4989830;28;20479;-84
2023/04/29 01:34:50;;;;;;;44.22;38.63;;;;;;;8.74;100.00;101450.13;4990688;28;20030;-84
2023/04/29 01:37:40;;;;;;;49.38;40.70;;;;;;;8.72;100.00;101453.78;4990940;28;20367;-84
2023/04/29 01:40:37;;;;;;;46.97;39.63;;;;;;;8.74;100.00;101450.13;4998484;28;20028;-83
2023/04/29 01:43:10;;;;;;;52.80;41.95;;;;;;;8.67;100.00;101459.28;5026905;28;20052;-85
2023/04/29 01:45:50;;;;;;;50.42;40.17;;;;;;;8.62;100.00;101461.31;5049180;28;20401;-85
2023/04/29 01:48:18;;;;;;;48.45;40.30;;;;;;;8.63;100.00;101455.13;5049709;28;20032;-84
2023/04/29 01:50:46;;;;;;;52.65;41.05;;;;;;;8.61;100.00;101459.63;5050182;28;20029;-84
2023/04/29 01:53:44;;;;;;;52.90;41.95;;;;;;;8.69;100.00;101462.66;5048460;28;20555;-84
2023/04/29 01:56:12;;;;;;;54.83;43.63;;;;;;;8.68;100.00;101460.97;5043697;28;20048;-84
2023/04/29 01:58:44;;;;;;;57.13;44.10;;;;;;;8.65;100.00;101466.38;5051507;28;20499;-84
2023/04/29 02:01:13;;;;;;;57.45;43.38;;;;;;;8.69;100.00;101467.91;5051024;28;20106;-85
2023/04/29 02:03:38;;;;;;;57.88;43.58;;;;;;;8.65;100.00;101458.53;5044203;28;20417;-86
2023/04/29 02:06:06;;;;;;;60.80;44.53;;;;;;;8.65;100.00;101460.31;5050405;28;20017;-86
2023/04/29 02:08:38;;;;;;;57.50;44.47;;;;;;;8.67;100.00;101469.78;5051433;28;20029;-85
2023/04/29 02:11:06;;;;;;;58.55;45.22;;;;;;;8.65;100.00;101466.38;5065510;28;20059;-86
2023/04/29 02:13:31;;;;;;;58.47;45.85;;;;;;;8.64;100.00;101477.81;5051381;28;20021;-85
2023/04/29 02:16:15;;;;;;;62.65;45.03;;;;;;;8.65;100.00;101474.25;5058453;28;20040;-85
2023/04/29 02:18:45;;;;;;;63.10;45.22;;;;;;;8.65;100.00;101473.41;5030972;28;20030;-85
2023/04/29 02:21:19;;;;;;;59.55;44.95;;;;;;;8.65;100.00;101482.13;5030610;28;20037;-85
2023/04/29 02:23:47;;;;;;;64.20;45.97;;;;;;;8.60;100.00;101484.16;5029249;28;20060;-85
2023/04/29 02:26:16;;;;;;;61.55;46.10;;;;;;;8.68;100.00;101489.81;5028184;28;20028;-85
2023/04/29 02:28:45;;;;;;;64.95;46.25;;;;;;;8.65;100.00;101492.63;5029848;28;20474;-85
2023/04/29 02:31:11;;;;;;;61.80;47.10;;;;;;;8.69;100.00;101488.06;5027487;28;20022;-85
2023/04/29 02:33:46;;;;;;;63.55;46.80;;;;;;;8.70;100.00;101501.06;5028338;28;20108;-84
2023/04/29 02:36:21;;;;;;;67.60;46.38;;;;;;;8.70;100.00;101501.06;5029240;28;20033;-85
2023/04/29 02:38:49;;;;;;;69.05;47.92;;;;;;;8.68;100.00;101497.69;5029309;28;20032;-85
2023/04/29 02:41:24;;;;;;;74.68;48.95;;;;;;;8.70;100.00;101506.31;5044288;28;20025;-85
2023/04/29 02:43:53;;;;;;;66.28;47.45;;;;;;;8.70;100.00;101511.56;5047868;28;20468;-84
2023/04/29 02:46:19;;;;;;;68.05;48.25;;;;;;;8.74;100.00;101514.88;5047329;28;20031;-84
2023/04/29 02:48:50;;;;;;;68.30;47.40;;;;;;;8.74;100.00;101518.34;5049494;28;20472;-84
2023/04/29 02:51:15;;;;;;;71.85;48.08;;;;;;;8.72;100.00;101520.19;5048210;28;20036;-84
2023/04/29 02:53:41;;;;;;;69.38;48.22;;;;;;;8.71;100.00;101520.28;5047569;28;20021;-84
2023/04/29 02:56:10;;;;;;;72.25;47.67;;;;;;;8.70;100.00;101523.84;5046817;28;20029;-84
2023/04/29 02:58:38;;;;;;;69.95;48.28;;;;;;;8.65;100.00;101521.47;5047207;28;20058;-84
2023/04/29 03:01:04;;;;;;;73.85;48.85;;;;;;;8.68;100.00;101523.94;5048394;28;20075;-84
2023/04/29 03:03:32;;;;;;;74.47;48.03;;;;;;;8.67;100.00;101531.88;5049637;28;20060;-84
2023/04/29 03:06:04;;;;;;;68.85;46.75;;;;;;;8.67;100.00;101527.47;5048705;28;20032;-83
2023/04/29 03:08:32;;;;;;;72.75;48.25;;;;;;;8.68;100.00;101534.41;5033201;28;20377;-83
2023/04/29 03:11:06;;;;;;;71.45;48.40;;;;;;;8.64;100.00;101529.44;5028115;28;20441;-83
2023/04/29 03:13:36;;;;;;;72.13;47.50;;;;;;;8.62;100.00;101532.13;5028344;28;20474;-84
2023/04/29 03:16:07;;;;;;;77.07;48.60;;;;;;;8.57;100.00;101531.56;5036763;28;20029;-84
2023/04/29 03:18:36;;;;;;;74.28;48.42;;;;;;;8.61;100.00;101535.69;5050126;28;20017;-84
2023/04/29 03:21:03;;;;;;;79.95;49.70;;;;;;;8.58;100.00;101538.50;5049158;28;20021;-84
2023/04/29 03:23:32;;;;;;;77.03;49.33;;;;;;;8.58;100.00;101537.66;5048644;28;20025;-84
2023/04/29 03:26:12;;;;;;;78.25;49.58;;;;;;;8.62;100.00;101544.41;5049811;28;20283;-84
2023/04/29 03:28:37;;;;;;;69.95;47.03;;;;;;;8.62;100.00;101540.00;5049190;28;20091;-84
2023/04/29 03:31:06;;;;;;;72.18;48.22;;;;;;;8.58;100.00;101543.72;5049194;28;20064;-84
2023/04/29 03:33:31;;;;;;;73.03;46.88;;;;;;;8.59;100.00;101547.19;5048248;28;20472;-84
2023/04/29 03:36:07;;;;;;;74.18;47.40;;;;;;;8.54;100.00;101546.59;5048335;28;20025;-84
2023/04/29 03:38:38;;;;;;;73.75;48.13;;;;;;;8.49;100.00;101544.25;5049280;28;20426;-84
2023/04/29 03:41:09;;;;;;;72.38;46.63;;;;;;;8.48;100.00;101553.03;5048621;28;20366;-84
2023/04/29 03:43:44;;;;;;;70.60;46.75;;;;;;;8.50;100.00;101551.19;5048001;28;20056;-83
2023/04/29 03:46:09;;;;;;;71.82;45.58;;;;;;;8.47;100.00;101553.97;5049073;28;20028;-83
2023/04/29 03:48:36;;;;;;;75.10;46.38;;;;;;;8.51;100.00;101552.88;5045107;28;20041;-84
2023/04/29 03:51:05;;;;;;;68.65;44.90;;;;;;;8.50;100.00;101556.41;5047826;28;20044;-83
2023/04/29 03:53:35;;;;;;;70.18;46.13;;;;;;;8.50;100.00;101556.41;5048715;28;20474;-83
2023/04/29 03:56:06;;;;;;;65.97;44.70;;;;;;;8.44;100.00;101552.34;5046378;28;20036;-84
2023/04/29 03:58:35;;;;;;;64.68;44.47;;;;;;;8.49;100.00;101554.72;5046938;28;20025;-82
2023/04/29 04:01:21;;;;;;;66.40;44.67;;;;;;;8.47;100.00;101559.22;5047996;28;20029;-83
2023/04/29 04:03:46;;;;;;;65.38;44.40;;;;;;;8.51;100.00;101557.28;5048207;28;20060;-83
2023/04/29 04:06:15;;;;;;;63.40;42.95;;;;;;;8.51;100.00;101571.22;5046670;28;20450;-83
2023/04/29 04:08:55;;;;;;;69.25;43.03;;;;;;;8.45;100.00;101564.53;5050784;28;20025;-83
2023/04/29 04:11:23;;;;;;;67.63;43.40;;;;;;;8.47;100.00;101567.09;5051764;28;20441;-83
2023/04/29 04:13:52;;;;;;;64.90;42.88;;;;;;;8.44;100.00;101577.75;5052247;28;20059;-83
2023/04/29 04:16:21;;;;;;;62.03;40.90;;;;;;;8.48;100.00;101574.00;5051429;28;20060;-85
2023/04/29 04:18:49;;;;;;;59.58;40.40;;;;;;;8.44;100.00;101577.75;5052011;28;20036;-83
2023/04/29 04:21:27;;;;;;;62.70;39.70;;;;;;;8.43;100.00;101566.41;5051750;28;20017;-83
2023/04/29 04:23:53;;;;;;;55.03;40.58;;;;;;;8.48;100.00;101579.25;5051702;28;20535;-83
2023/04/29 04:26:21;;;;;;;65.20;40.88;;;;;;;8.48;100.00;101590.59;5051578;28;20033;-83
2023/04/29 04:28:49;;;;;;;61.83;40.35;;;;;;;8.45;100.00;101589.91;5029054;28;20037;-83
2023/04/29 04:31:18;;;;;;;61.83;40.47;;;;;;;8.47;100.00;101582.81;5028646;28;20164;-82
2023/04/29 04:33:47;;;;;;;58.38;39.58;;;;;;;8.44;100.00;101589.06;5030309;28;20044;-83
2023/04/29 04:36:25;;;;;;;56.78;39.20;;;;;;;8.42;100.00;101595.31;5030298;28;20025;-83
2023/04/29 04:38:56;;;;;;;61.17;40.20;;;;;;;8.44;100.00;101598.72;5030390;28;20472;-82
2023/04/29 04:41:21;;;;;;;58.95;39.15;;;;;;;8.41;100.00;101596.25;5030028;28;20052;-82
2023/04/29 04:43:48;;;;;;;56.25;39.00;;;;;;;8.45;100.00;101605.66;5012729;28;20053;-83
2023/04/29 04:46:17;;;;;;;57.85;39.25;;;;;;;8.42;100.00;101600.56;5029812;28;20040;-83
2023/04/29 04:48:43;;;;;;;54.03;38.28;;;;;;;8.47;100.00;101619.53;5013560;28;20034;-82
2023/04/29 04:51:14;;;;;;;58.25;39.22;;;;;;;8.50;100.00;101618.53;5029341;28;20081;-83
2023/04/29 04:53:40;;;;;;;60.20;39.75;;;;;;;8.46;100.00;101623.94;5030350;28;20041;-83
2023/04/29 04:56:08;;;;;;;57.88;38.42;;;;;;;8.46;100.00;101634.41;5029742;28;20025;-83
2023/04/29 04:58:33;;;;;;;52.58;37.13;;;;;;;8.48;100.00;101636.97;5012762;28;20029;-83
2023/04/29 05:01:10;;;;;;;53.45;37.40;;;;;;;8.47;100.00;101637.88;5052566;28;20025;-83
2023/04/29 05:03:36;;;;;;;50.75;36.85;;;;;;;8.47;100.00;101630.03;5052659;28;20036;-83
2023/04/29 05:06:01;;;;;;;51.88;36.58;;;;;;;8.52;100.00;101638.50;5049547;28;20051;-83
2023/04/29 05:08:27;;;;;;;53.42;37.50;;;;;;;8.52;100.00;101642.88;5051264;28;20021;-83
2023/04/29 05:10:54;;;;;;;50.10;36.22;;;;;;;8.50;100.00;101645.59;5049437;28;20128;-83
2023/04/29 05:13:24;;;;;;;50.05;35.60;;;;;;;8.50;100.00;101642.97;5049083;28;20123;-83
2023/04/29 05:15:52;;;;;;;46.30;35.15;;;;;;;8.51;100.00;101643.81;5051238;28;20540;-83
2023/04/29 05:18:18;;;;;;;56.25;36.13;;;;;;;8.52;100.00;101646.34;5048902;28;20049;-83
2023/04/29 05:20:47;;;;;;;55.03;34.22;;;;;;;8.54;100.00;101646.28;5049299;28;20017;-83
2023/04/29 05:23:15;;;;;;;49.75;36.10;;;;;;;8.55;100.00;101653.22;5050916;28;20496;-83
2023/04/29 05:25:41;;;;;;;48.28;35.10;;;;;;;8.56;100.00;101660.16;5050895;28;20104;-83
2023/04/29 05:28:07;;;;;;;48.25;35.47;;;;;;;8.57;100.00;101660.06;5050232;28;20534;-83
2023/04/29 05:30:36;;;;;;;49.63;35.03;;;;;;;8.61;100.00;101664.22;5066775;28;20029;-83
2023/04/29 05:33:02;;;;;;;50.03;35.10;;;;;;;8.57;100.00;101667.09;5050228;28;20440;-83
2023/04/29 05:35:27;;;;;;;53.55;34.83;;;;;;;8.57;100.00;101662.69;5049429;28;20029;-83
2023/04/29 05:38:05;;;;;;;46.92;34.35;;;;;;;8.62;100.00;101662.44;5049607;28;20083;-83
2023/04/29 05:40:30;;;;;;;44.47;34.13;;;;;;;8.60;100.00;101665.16;5050649;28;20040;-83
2023/04/29 05:43:13;;;;;;;46.47;34.28;;;;;;;8.57;100.00;101672.34;5050351;28;20136;-84
2023/04/29 05:45:53;;;;;;;48.97;34.97;;;;;;;8.63;100.00;101678.09;5051101;28;20021;-84
2023/04/29 05:48:18;;;;;;;42.25;33.17;;;;;;;8.66;100.00;101677.94;5049681;28;20436;-83
2023/04/29 05:50:47;;;;;;;42.33;33.40;;;;;;;8.65;100.00;101680.66;5050759;28;20028;-83
2023/04/29 05:53:17;;;;;;;43.88;32.80;;;;;;;8.67;100.00;101684.88;5050910;28;20029;-83
2023/04/29 05:55:43;;;;;;;44.35;32.35;;;;;;;8.69;100.00;101693.53;5049352;28;20088;-83
2023/04/29 05:58:15;;;;;;;41.97;31.45;;;;;;;8.68;100.00;101696.22;5065823;28;20029;-84
2023/04/29 06:00:42;;;;;;;44.33;33.25;;;;;;;8.70;100.00;101699.63;5050250;28;20029;-83
2023/04/29 06:03:12;;;;;;;46.97;32.90;;;;;;;8.74;100.00;101702.00;5050002;28;20455;-83
2023/04/29 06:05:40;;;;;;;43.60;32.45;;;;;;;8.76;100.00;101708.00;5051300;28;20438;-83
2023/04/29 06:08:06;;;;;;;41.72;31.25;;;;;;;8.75;100.00;101708.09;5038846;28;20031;-84
2023/04/29 06:10:32;;;;;;;40.15;31.05;;;;;;;8.77;100.00;101712.31;5045803;28;20025;-84
2023/04/29 06:13:00;;;;;;;40.03;31.08;;;;;;;8.78;100.00;101714.03;5029836;28;20036;-83
2023/04/29 06:15:26;;;;;;;40.67;31.92;;;;;;;8.77;100.00;101712.31;5031378;28;20030;-83
2023/04/29 06:17:54;;;;;;;41.88;31.48;;;;;;;8.76;100.00;101720.28;5049659;28;20047;-83
2023/04/29 06:20:40;;;;;;;39.45;31.17;;;;;;;8.76;100.00;101723.75;5050431;28;20290;-83
2023/04/29 06:23:08;;;;;;;43.25;31.13;;;;;;;8.76;100.00;101726.38;5049809;28;20021;-83
2023/04/29 06:25:39;;;;;;;38.15;30.65;;;;;;;8.79;100.00;101731.47;5049543;28;20052;-83
2023/04/29 06:28:04;;;;;;;38.17;30.98;;;;;;;8.84;100.00;101727.78;5050082;28;20028;-83
2023/04/29 06:30:30;;;;;;;40.90;31.38;;;;;;;8.82;100.00;101734.88;5048722;28;20021;-83
2023/04/29 06:32:55;;;;;;;44.08;31.23;;;;;;;8.80;100.00;101732.31;5049932;28;20139;-83
2023/04/29 06:35:21;;;;;;;44.00;31.35;;;;;;;8.84;100.00;101736.50;5048961;28;20026;-83
2023/04/29 06:37:47;;;;;;;41.58;31.35;;;;;;;8.86;100.00;101746.91;5047581;28;20037;-83
2023/04/29 06:40:35;;;;;;;45.20;30.98;;;;;;;8.88;100.00;101745.06;5049123;28;20021;-83
2023/04/29 06:43:01;;;;;;;42.28;30.20;;;;;;;8.96;100.00;101742.88;5048929;28;20040;-83
2023/04/29 06:45:27;;;;;;;41.60;31.52;;;;;;;9.02;100.00;101750.41;5006823;28;20490;-84
2023/04/29 06:47:53;;;;;;;37.13;30.17;;;;;;;9.11;100.00;101752.53;4991193;28;20046;-83
2023/04/29 06:50:23;;;;;;;47.67;31.08;;;;;;;9.19;100.00;101765.25;5006513;28;20065;-83
2023/04/29 06:52:52;;;;;;;44.60;31.23;;;;;;;9.26;100.00;101766.66;5007526;28;20068;-83
2023/04/29 06:55:17;;;;;;;45.70;31.35;;;;;;;9.32;100.00;101767.16;5007081;28;20037;-83
2023/04/29 06:57:43;;;;;;;40.17;29.33;;;;;;;9.38;100.00;101774.72;5007221;28;20037;-82
2023/04/29 07:00:08;;;;;;;45.05;29.65;;;;;;;9.42;100.00;101776.22;4990278;28;20037;-82
2023/04/29 07:02:37;;;;;;;39.05;29.20;;;;;;;9.40;100.00;101780.72;5007556;28;20034;-82
2023/04/29 07:05:06;;;;;;;40.17;30.10;;;;;;;9.49;100.00;101789.88;4989572;28;20037;-82
2023/04/29 07:07:31;;;;;;;36.65;28.70;;;;;;;9.59;100.00;101784.97;5007206;28;20061;-82
2023/04/29 07:09:57;;;;;;;38.13;29.08;;;;;;;9.67;100.00;101788.88;5007499;28;20212;-82
2023/04/29 07:12:22;;;;;;;39.53;28.40;;;;;;;9.67;100.00;101790.66;5006778;28;20026;-85
2023/04/29 07:14:51;;;;;;;36.20;27.27;;;;;;;9.72;100.00;101792.09;5007991;28;20548;-83
2023/04/29 07:17:19;;;;;;;40.45;27.25;;;;;;;9.77;100.00;101793.63;5038910;28;20071;-82
2023/04/29 07:19:55;;;;;;;32.75;26.83;;;;;;;9.81;100.00;101793.38;5049746;28;20032;-83
2023/04/29 07:22:21;;;;;;;34.78;26.70;;;;;;;9.85;100.00;101796.69;5049513;28;20025;-83
2023/04/29 07:24:46;;;;;;;33.85;26.67;;;;;;;9.89;100.00;101803.47;5065346;28;20042;-83
2023/04/29 07:27:48;;;;;;;37.80;26.23;;;;;;;9.90;100.00;101803.38;5048642;28;20032;-83
2023/04/29 07:30:22;;;;;;;40.35;27.05;;;;;;;9.87;100.00;101811.44;5047707;28;20147;-83
2023/04/29 07:32:50;;;;;;;32.80;25.52;;;;;;;9.88;100.00;101810.50;5049391;28;20707;-83
2023/04/29 07:35:19;;;;;;;37.08;26.38;;;;;;;9.87;100.00;101816.69;5047853;28;20021;-83
2023/04/29 07:37:45;;;;;;;29.90;25.27;;;;;;;9.87;100.00;101821.94;5049880;28;20025;-83
2023/04/29 07:40:13;;;;;;;29.55;24.70;;;;;;;9.96;100.00;101816.16;5047035;28;20071;-83
2023/04/29 07:42:39;;;;;;;31.52;24.70;;;;;;;9.95;100.00;101824.13;5049102;28;20052;-83
2023/04/29 07:45:18;;;;;;;38.47;25.08;;;;;;;10.10;100.00;101827.72;5047251;28;20048;-83
2023/04/29 07:47:49;;;;;;;29.77;24.70;;;;;;;10.19;100.00;101821.94;5048553;28;20469;-83
2023/04/29 07:50:25;;;;;;;29.08;24.35;;;;;;;10.21;100.00;101826.19;5048264;28;20025;-83
2023/04/29 07:52:55;;;;;;;28.67;23.48;;;;;;;10.26;100.00;101823.31;5048857;28;20052;-83
2023/04/29 07:55:28;;;;;;;25.67;22.85;;;;;;;10.35;100.00;101833.28;5062966;28;20031;-83
2023/04/29 07:57:54;;;;;;;29.63;23.50;;;;;;;10.47;100.00;101837.03;5049072;28;20569;-83
2023/04/29 08:00:23;;;;;;;28.98;23.38;;;;;;;10.53;100.00;101837.50;5063729;28;20094;-83
2023/04/29 08:03:19;;;;;;;28.92;24.10;;;;;;;10.79;100.00;101841.25;5047344;28;20025;-83
2023/04/29 08:05:45;;;;;;;25.40;21.90;;;;;;;10.98;100.00;101833.13;5048984;28;20029;-83
2023/04/29 08:08:17;;;;;;;28.58;22.35;;;;;;;11.04;100.00;101835.38;5047695;28;20151;-83
2023/04/29 08:10:50;;;;;;;;;;;;;;;11.25;100.00;101835.88;5049153;28;20485;-83
2023/04/29 08:13:16;;;;;;;26.10;21.08;;;;;;;11.11;100.00;101843.75;5063424;28;19909;-83
2023/04/29 08:15:44;;;;;;;23.88;20.25;;;;;;;11.03;100.00;101844.22;5048256;28;20035;-84
2023/04/29 08:18:13;;;;;;;22.65;20.25;;;;;;;11.10;100.00;101848.16;5047777;28;20032;-83
2023/04/29 08:20:38;;;;;;;23.67;20.73;;;;;;;11.22;100.00;101850.09;5048767;28;20021;-83
2023/04/29 08:23:04;;;;;;;23.23;19.67;;;;;;;11.31;100.00;101838.13;5048033;28;20028;-83
2023/04/29 08:25:32;;;;;;;22.75;20.35;;;;;;;11.49;100.00;101844.06;5049695;28;20025;-84
2023/04/29 08:28:12;;;;;;;21.65;19.33;;;;;;;11.53;99.65;101846.41;5049683;28;20029;-84
2023/04/29 08:30:41;;;;;;;23.67;20.75;;;;;;;11.46;100.00;101850.34;5047269;28;20040;-84
2023/04/29 08:33:08;;;;;;;23.40;18.80;;;;;;;11.52;99.18;101849.13;5048724;28;20021;-84
2023/04/29 08:35:36;;;;;;;22.65;18.52;;;;;;;11.52;98.11;101852.63;5048872;28;20055;-85
2023/04/29 08:38:08;;;;;;;22.80;19.00;;;;;;;11.65;98.37;101855.34;5049054;28;20043;-85
2023/04/29 08:40:47;;;;;;;25.15;19.38;;;;;;;11.79;98.70;101858.00;5049230;28;20033;-85
2023/04/29 08:43:22;;;;;;;22.83;18.20;;;;;;;11.84;96.71;101855.91;5047870;28;20047;-85
2023/04/29 08:45:51;;;;;;;19.95;17.30;;;;;;;12.08;97.83;101858.81;5049272;28;20381;-85
2023/04/29 08:48:21;;;;;;;26.38;18.52;;;;;;;12.20;95.40;101868.56;5047557;28;20119;-85
2023/04/29 08:50:52;;;;;;;23.35;18.05;;;;;;;12.43;94.11;101861.81;5048206;28;20565;-85
2023/04/29 08:53:18;;;;;;;19.50;16.42;;;;;;;12.49;90.01;101869.31;5048457;28;20025;-83
2023/04/29 08:55:48;;;;;;;19.88;15.68;;;;;;;12.78;90.51;101875.28;5052266;28;20373;-85
2023/04/29 08:58:19;;;;;;;19.27;16.20;;;;;;;13.05;87.30;101877.88;5050894;28;20029;-85
2023/04/29 09:00:45;;;;;;;18.90;14.70;;;;;;;13.20;86.53;101869.88;5067303;28;20108;-85
2023/04/29 09:03:24;;;;;;;17.50;15.07;;;;;;;13.20;84.04;101877.81;5066528;28;20025;-84
2023/04/29 09:05:53;;;;;;;16.92;15.13;;;;;;;13.43;85.87;101870.00;5049974;28;20073;-83
2023/04/29 09:08:23;;;;;;;18.00;14.55;;;;;;;13.41;85.07;101871.91;5037349;28;20030;-83
2023/04/29 09:10:50;;;;;;;19.30;14.40;;;;;;;13.72;83.14;101867.97;5046817;28;20032;-83
2023/04/29 09:13:32;;;;;;;17.70;15.13;;;;;;;14.23;82.55;101875.75;5029741;28;20024;-82
2023/04/29 09:15:58;;;;;;;16.88;13.85;;;;;;;14.55;78.02;101875.22;5053654;28;20037;-83
2023/04/29 09:18:49;;;;;;;15.65;12.68;;;;;;;14.76;80.08;101876.25;5050714;28;20416;-83
2023/04/29 09:21:19;;;;;;;17.20;12.88;;;;;;;14.86;74.60;101876.44;5066333;28;20025;-82
2023/04/29 09:23:50;;;;;;;15.05;11.48;;;;;;;14.92;74.11;101875.97;5050185;28;20025;-83
2023/04/29 09:26:26;;;;;;;15.50;12.38;;;;;;;14.81;74.68;101868.84;5050880;28;20025;-83
2023/04/29 09:29:21;;;;;;;18.38;13.25;;;;;;;14.93;79.76;101875.84;5050711;28;20482;-83
2023/04/29 09:31:54;;;;;;;19.05;12.48;;;;;;;14.93;75.22;101873.19;5050956;28;20120;-82
2023/04/29 09:34:39;;;;;;;17.58;12.52;;;;;;;15.09;79.35;101878.16;5049743;28;20029;-83
2023/04/29 09:37:26;;;;;;;13.90;11.32;;;;;;;15.08;77.04;101881.78;5066767;28;20416;-83
2023/04/29 09:39:52;;;;;;;14.50;10.32;;;;;;;14.66;71.17;101880.56;5050136;28;20075;-83
2023/04/29 09:42:21;;;;;;;11.95;10.40;;;;;;;14.51;73.87;101884.34;5051155;28;20035;-83
2023/04/29 09:44:47;;;;;;;13.82;11.95;;;;;;;14.44;74.76;101880.47;5050504;28;20087;-83
2023/04/29 09:47:13;;;;;;;13.27;11.68;;;;;;;14.37;75.64;101885.31;5050479;28;20049;-83
2023/04/29 09:49:41;;;;;;;15.30;11.57;;;;;;;14.33;76.18;101890.00;5051989;28;20384;-83
2023/04/29 09:52:09;;;;;;;14.80;11.48;;;;;;;14.18;74.33;101896.41;5049970;28;20426;-83
2023/04/29 09:54:39;;;;;;;12.98;11.07;;;;;;;14.13;76.42;101893.25;5051194;28;20098;-83
2023/04/29 09:57:07;;;;;;;14.57;10.93;;;;;;;14.41;75.50;101897.41;5066383;28;20029;-83
2023/04/29 09:59:38;;;;;;;14.88;11.00;;;;;;;14.58;71.84;101898.84;5050312;28;20071;-83
2023/04/29 10:02:16;;;;;;;13.60;10.38;;;;;;;14.60;73.87;101902.22;5048202;28;20025;-83
2023/04/29 10:04:49;;;;;;;14.73;10.80;;;;;;;14.62;72.71;101905.59;5049433;28;20029;-83
2023/04/29 10:07:25;;;;;;;13.35;10.13;;;;;;;14.83;71.28;101898.72;5049725;28;20017;-83
2023/04/29 10:09:53;;;;;;;12.82;10.10;;;;;;;14.89;69.60;101910.66;5065991;28;20481;-83
2023/04/29 10:12:20;;;;;;;14.15;10.15;;;;;;;14.96;70.55;101911.88;5048607;28;20926;-83
2023/04/29 10:15:18;;;;;;;11.52;10.30;;;;;;;14.91;74.70;101912.22;5050182;28;20040;-83
2023/04/29 10:17:53;;;;;;;12.68;10.55;;;;;;;14.51;71.54;101910.84;5030740;28;20171;-84
2023/04/29 10:20:24;;;;;;;14.55;9.63;;;;;;;14.43;72.88;101922.00;5030240;28;20035;-83
2023/04/29 10:22:52;;;;;;;11.75;10.13;;;;;;;14.17;74.06;101920.34;5028330;28;20184;-83
2023/04/29 10:25:23;;;;;;;11.40;9.98;;;;;;;14.00;74.68;101918.88;5029959;28;20033;-83
2023/04/29 10:27:53;;;;;;;13.10;10.13;;;;;;;13.86;75.04;101913.75;5036818;28;20013;-83
2023/04/29 10:30:24;;;;;;;12.77;10.27;;;;;;;13.78;76.02;101909.84;5049142;28;20032;-83
2023/04/29 10:33:03;;;;;;;14.23;10.27;;;;;;;13.66;74.51;101917.81;5050043;28;20724;-83
2023/04/29 10:35:31;;;;;;;11.77;9.93;;;;;;;13.64;74.98;101923.19;5048854;28;20074;-83
2023/04/29 10:38:10;;;;;;;12.98;10.05;;;;;;;13.66;74.03;101920.44;5049935;28;20033;-83
2023/04/29 10:40:47;;;;;;;11.88;9.93;;;;;;;14.02;74.13;101922.31;5050044;28;20029;-84
2023/04/29 10:43:14;;;;;;;14.93;10.52;;;;;;;14.59;72.54;101911.13;5063169;28;20097;-84
2023/04/29 10:45:43;;;;;;;11.68;9.30;;;;;;;14.82;69.10;101907.63;5050369;28;20609;-84
2023/04/29 10:48:12;;;;;;;12.25;10.02;;;;;;;14.97;69.75;101919.69;5050095;28;20057;-84
2023/04/29 10:50:47;;;;;;;14.20;10.13;;;;;;;14.94;71.34;101916.44;5048895;28;20032;-84
2023/04/29 10:53:18;;;;;;;11.27;9.52;;;;;;;14.73;70.93;101918.88;5048534;28;20021;-83
2023/04/29 10:55:56;;;;;;;12.88;9.95;;;;;;;14.51;71.15;101919.63;5050818;28;20052;-83
2023/04/29 10:58:44;;;;;;;11.82;9.57;;;;;;;14.57;72.89;101928.94;5064714;28;20481;-83
2023/04/29 11:01:13;;;;;;;13.43;9.50;;;;;;;14.51;71.88;101926.72;5049855;28;20040;-83
2023/04/29 11:03:58;;;;;;;11.60;9.48;;;;;;;14.63;70.97;101931.13;5048560;28;20066;-83
2023/04/29 11:06:46;;;;;;;14.18;9.93;;;;;;;14.80;72.86;101925.41;5049577;28;20059;-84
2023/04/29 11:09:23;;;;;;;12.38;9.00;;;;;;;14.95;69.58;101929.56;5049490;28;20457;-84
2023/04/29 11:12:04;;;;;;;11.55;9.27;;;;;;;15.00;66.95;101930.06;5048196;28;20051;-84
2023/04/29 11:14:48;;;;;;;12.80;8.95;;;;;;;15.13;67.75;101932.63;5048841;28;20045;-84
2023/04/29 11:17:15;;;;;;;10.13;8.75;;;;;;;14.89;67.45;101935.34;5048480;28;20028;-84
2023/04/29 11:19:57;;;;;;;13.07;8.93;;;;;;;14.89;70.53;101934.50;5047545;28;20627;-84
2023/04/29 11:22:30;;;;;;;11.17;8.87;;;;;;;14.72;69.10;101931.28;5064102;28;20135;-84
2023/04/29 11:25:06;;;;;;;12.15;9.63;;;;;;;14.73;68.86;101929.47;5064425;28;20094;-84
2023/04/29 11:27:42;;;;;;;11.98;8.70;;;;;;;14.76;69.63;101934.53;5049100;28;20380;-84